Time;durP1;ratioP1;P1;durP2;ratioP2;P2;SDS_P1;SDS_P2;PMS_P1;PMS_P2;Temp;Humidity;BMP_temperature;BMP_pressure;BME280_temperature;BME280_humidity;BME280_pressure;Samples;Min_cycle;Max_cycle;Signal;HPM_P1;HPM_P2
2022/02/11 00:00:53;;;;;;;7.80;5.90;;;;;;;5.44;78.73;100051.52;106246;1271;108468;-72
2022/02/11 00:06:31;;;;;;;9.00;6.00;;;;;;;5.46;78.50;100047.52;106228;1271;96457;-73
2022/02/11 00:09:03;;;;;;;9.20;5.60;;;;;;;5.41;78.19;100053.29;106199;1271;137480;-72
2022/02/11 00:11:39;;;;;;;5.70;5.00;;;;;;;5.32;77.77;100047.90;106308;1270;110704;-73
2022/02/11 00:14:12;;;;;;;7.30;4.80;;;;;;;5.22;77.78;100055.81;106261;1271;138313;-73
2022/02/11 00:16:44;;;;;;;4.80;3.80;;;;;;;5.13;77.51;100062.48;106240;1270;106817;-73
2022/02/11 00:19:16;;;;;;;8.40;4.00;;;;;;;5.06;77.64;100075.50;106241;1271;96488;-73
2022/02/11 00:21:48;;;;;;;6.60;3.90;;;;;;;5.01;77.58;100080.36;106202;1270;137651;-73
2022/02/11 00:24:20;;;;;;;4.90;3.50;;;;;;;4.98;77.56;100088.84;106285;1271;110837;-73
2022/02/11 00:27:32;;;;;;;6.10;3.70;;;;;;;4.93;77.63;100095.27;106206;1271;137600;-74
2022/02/11 00:30:32;;;;;;;5.10;4.20;;;;;;;4.90;77.77;100102.56;106276;1271;109096;-73
2022/02/11 00:33:11;;;;;;;6.40;4.40;;;;;;;4.86;77.77;100102.78;106184;1270;138593;-74
2022/02/11 00:35:48;;;;;;;5.40;3.80;;;;;;;4.81;77.59;100104.20;106336;1271;96481;-73
2022/02/11 00:38:27;;;;;;;8.40;3.70;;;;;;;4.78;77.91;100105.95;106103;1270;140228;-74
2022/02/11 00:47:17;;;;;;;4.50;3.00;;;;;;;4.81;77.89;100106.08;105943;1273;96494;-73
2022/02/11 01:04:07;;;;;;;5.50;3.00;;;;;;;4.60;77.89;100118.89;105853;1274;137966;-73
2022/02/11 01:06:39;;;;;;;5.40;2.80;;;;;;;4.58;77.79;100114.43;105917;1274;109121;-72
2022/02/11 01:09:14;;;;;;;4.40;2.60;;;;;;;4.57;77.76;100110.48;106030;1274;138444;-73
2022/02/11 01:11:49;;;;;;;5.80;3.10;;;;;;;4.58;77.67;100112.02;107636;1273;108359;-73
2022/02/11 01:14:32;;;;;;;4.00;3.00;;;;;;;4.60;77.59;100114.92;106923;1274;138462;-71
2022/02/11 01:17:13;;;;;;;4.50;3.00;;;;;;;4.60;77.65;100110.27;107762;1271;94886;-72
2022/02/11 01:19:56;;;;;;;4.50;3.20;;;;;;;4.64;77.59;100114.70;107829;1271;110217;-73
2022/02/11 01:22:40;;;;;;;6.60;3.30;;;;;;;4.64;77.57;100109.37;107664;1271;138794;-72
2022/02/11 01:28:07;;;;;;;5.20;3.20;;;;;;;4.63;77.34;100106.10;107679;1271;137984;-72
2022/02/11 01:30:55;;;;;;;5.50;3.40;;;;;;;4.62;77.41;100102.85;107789;1270;94710;-73
2022/02/11 01:33:46;;;;;;;6.20;3.60;;;;;;;4.61;77.24;100105.10;107685;1271;138051;-72
2022/02/11 01:36:38;;;;;;;8.50;3.90;;;;;;;4.62;77.52;100113.69;107802;1271;108914;-72
2022/02/11 01:39:44;;;;;;;6.20;4.20;;;;;;;4.62;77.32;100111.45;107704;1270;138196;-73
2022/02/11 01:51:39;;;;;;;6.90;3.90;;;;;;;4.60;77.24;100108.55;105413;1284;137260;-72
2022/02/11 01:54:31;;;;;;;6.20;4.00;;;;;;;4.65;77.49;100110.57;106348;1287;92751;-72
2022/02/11 01:57:11;;;;;;;5.90;4.10;;;;;;;4.67;77.59;100110.21;106200;1287;137076;-73
2022/02/11 02:00:24;;;;;;;7.10;4.60;;;;;;;4.67;77.43;100110.55;105898;1287;109267;-72
2022/02/11 02:03:20;;;;;;;6.70;5.60;;;;;;;4.68;77.43;100115.73;106304;1286;137148;-73
2022/02/11 02:09:05;;;;;;;8.30;5.70;;;;;;;4.63;77.72;100113.52;106463;1284;138676;-71
2022/02/11 02:12:18;;;;;;;9.20;6.20;;;;;;;4.62;77.42;100115.92;106610;1284;108588;-72
2022/02/11 02:23:58;;;;;;;8.50;5.70;;;;;;;4.59;77.34;100117.86;106045;1274;94448;-73
2022/02/11 02:26:50;;;;;;;10.00;5.70;;;;;;;4.52;77.32;100121.55;106035;1274;136632;-73
2022/02/11 02:58:14;;;;;;;11.00;5.80;;;;;;;4.19;77.15;100138.20;107337;1276;137539;-72
2022/02/11 03:01:30;;;;;;;8.30;6.00;;;;;;;4.18;77.18;100135.80;107448;1276;109053;-72
2022/02/11 03:35:22;;;;;;;12.10;7.20;;;;;;;3.94;77.74;100156.27;106702;1283;138461;-73
2022/02/11 03:49:18;;;;;;;10.10;7.20;;;;;;;3.96;77.66;100157.14;106709;1282;93538;-73
2022/02/11 03:55:30;;;;;;;14.00;7.80;;;;;;;3.92;77.53;100164.70;106842;1281;109880;-72
2022/02/11 04:55:03;;;;;;;10.20;6.80;;;;;;;3.62;77.62;100170.58;106921;1276;109496;-74
2022/02/11 05:00:25;;;;;;;13.50;7.60;;;;;;;3.67;77.49;100164.52;107237;1273;95217;-72
2022/02/11 05:02:58;;;;;;;14.40;7.70;;;;;;;3.62;77.53;100161.63;107263;1273;96767;-73
2022/02/11 05:05:48;;;;;;;14.10;7.90;;;;;;;3.63;77.57;100161.80;107638;1273;139837;-72
2022/02/11 05:08:24;;;;;;;13.70;8.00;;;;;;;3.66;78.03;100161.42;107724;1273;108477;-72
2022/02/11 05:10:57;;;;;;;14.40;8.20;;;;;;;3.65;77.69;100160.06;106297;1274;137852;-71
2022/02/11 05:13:30;;;;;;;13.90;8.50;;;;;;;3.62;77.47;100168.67;106178;1274;95125;-72
2022/02/11 05:16:02;;;;;;;15.50;8.40;;;;;;;3.54;77.56;100173.00;105985;1273;136981;-72
2022/02/11 05:18:34;;;;;;;17.80;8.70;;;;;;;3.47;77.73;100176.31;106141;1273;109100;-72
2022/02/11 05:21:06;;;;;;;15.90;8.80;;;;;;;3.45;77.88;100175.29;106178;1274;108304;-72
2022/02/11 05:23:38;;;;;;;17.20;8.60;;;;;;;3.42;78.03;100174.62;105955;1274;137986;-72
2022/02/11 05:26:11;;;;;;;14.10;8.20;;;;;;;3.42;78.15;100175.98;106101;1272;95198;-72
2022/02/11 05:28:43;;;;;;;13.20;7.80;;;;;;;3.39;78.13;100181.14;106079;1274;137962;-72
2022/02/11 05:31:15;;;;;;;13.30;7.70;;;;;;;3.36;78.31;100182.19;106160;1273;109463;-73
2022/02/11 05:33:48;;;;;;;14.10;7.90;;;;;;;3.34;78.54;100180.13;106050;1273;138414;-73
2022/02/11 05:36:20;;;;;;;12.50;7.50;;;;;;;3.35;78.53;100178.41;106146;1271;108373;-72
2022/02/11 05:38:52;;;;;;;13.80;8.50;;;;;;;3.32;78.54;100178.43;106145;1273;98174;-73
2022/02/11 05:41:24;;;;;;;16.00;9.60;;;;;;;3.31;78.59;100172.24;106056;1271;137868;-73
2022/02/11 05:43:56;;;;;;;14.50;9.80;;;;;;;3.32;78.68;100172.23;106179;1271;109848;-74
2022/02/11 05:46:29;;;;;;;14.40;8.00;;;;;;;3.31;78.57;100176.72;106030;1274;137957;-74
2022/02/11 05:49:01;;;;;;;14.30;8.70;;;;;;;3.29;78.63;100175.70;106162;1274;108358;-74
2022/02/11 05:51:33;;;;;;;17.40;9.20;;;;;;;3.28;78.77;100184.13;105975;1274;138348;-73
2022/02/11 05:54:05;;;;;;;15.30;8.30;;;;;;;3.27;78.60;100185.33;106146;1274;94991;-73
2022/02/11 05:56:37;;;;;;;11.50;8.50;;;;;;;3.26;78.91;100184.83;106165;1273;109870;-73
2022/02/11 05:59:09;;;;;;;12.80;7.50;;;;;;;3.25;79.00;100187.40;106009;1273;138302;-74
2022/02/11 06:01:41;;;;;;;16.30;8.50;;;;;;;3.32;79.31;100189.27;106176;1274;108752;-74
2022/02/11 06:04:13;;;;;;;13.80;8.00;;;;;;;3.39;79.11;100192.31;106080;1271;137639;-74
2022/02/11 06:06:45;;;;;;;14.90;9.40;;;;;;;3.42;79.22;100197.30;107097;1271;94281;-73
2022/02/11 06:09:18;;;;;;;16.60;9.30;;;;;;;3.43;78.81;100198.86;107779;1271;137598;-72
2022/02/11 06:11:50;;;;;;;16.90;9.10;;;;;;;3.44;78.84;100197.30;107512;1273;108900;-74
2022/02/11 06:14:22;;;;;;;15.30;8.90;;;;;;;3.45;78.82;100199.36;106056;1274;108952;-74
2022/02/11 06:16:54;;;;;;;14.10;9.40;;;;;;;3.45;78.92;100199.19;105967;1273;138159;-74
2022/02/11 06:19:27;;;;;;;16.20;9.10;;;;;;;3.45;78.83;100198.49;106050;1273;95341;-74
2022/02/11 06:21:59;;;;;;;18.00;10.00;;;;;;;3.47;78.85;100194.19;107082;1272;138796;-74
2022/02/11 06:24:31;;;;;;;16.40;9.40;;;;;;;3.51;79.18;100190.05;107136;1272;108488;-74
2022/02/11 06:27:03;;;;;;;18.00;10.50;;;;;;;3.58;79.00;100188.46;106107;1274;108927;-74
2022/02/11 06:29:35;;;;;;;22.40;12.10;;;;;;;3.67;78.91;100189.96;106765;1273;137780;-74
2022/02/11 06:32:09;;;;;;;17.20;10.20;;;;;;;3.73;78.86;100193.02;107635;1273;93470;-78
2022/02/11 06:34:41;;;;;;;23.40;11.90;;;;;;;3.76;78.77;100193.36;106159;1273;137920;-73
2022/02/11 06:37:14;;;;;;;23.40;13.20;;;;;;;3.82;78.93;100190.41;107298;1273;106810;-73
2022/02/11 06:39:46;;;;;;;28.60;14.70;;;;;;;3.92;78.97;100190.68;107654;1271;138032;-74
2022/02/11 06:42:18;;;;;;;22.90;14.10;;;;;;;3.97;78.47;100193.24;107711;1271;93379;-74
2022/02/11 06:44:51;;;;;;;31.70;15.80;;;;;;;4.00;78.73;100195.63;106544;1271;95152;-73
2022/02/11 06:47:23;;;;;;;25.20;15.30;;;;;;;4.05;78.46;100198.00;105929;1271;138188;-74
2022/02/11 06:49:55;;;;;;;25.90;14.50;;;;;;;4.09;78.27;100195.39;106066;1274;108827;-72
2022/02/11 06:52:28;;;;;;;24.60;13.90;;;;;;;4.11;78.18;100193.65;106011;1274;137506;-74
2022/02/11 06:55:00;;;;;;;19.00;11.80;;;;;;;4.12;78.43;100192.09;106041;1274;96517;-73
2022/02/11 06:57:32;;;;;;;18.30;11.80;;;;;;;4.14;78.22;100195.88;105953;1274;138302;-73
2022/02/11 07:00:05;;;;;;;18.80;10.80;;;;;;;4.15;78.17;100201.73;106115;1273;110106;-74
2022/02/11 07:02:37;;;;;;;22.50;11.40;;;;;;;4.18;78.28;100209.45;106089;1273;107762;-74
2022/02/11 07:05:10;;;;;;;20.40;10.60;;;;;;;4.22;77.96;100214.06;105841;1273;138147;-74
2022/02/11 07:07:42;;;;;;;15.30;10.40;;;;;;;4.25;78.16;100217.13;106139;1272;96516;-74
2022/02/11 07:10:14;;;;;;;16.50;10.10;;;;;;;4.34;78.27;100221.39;105946;1274;137964;-74
2022/02/11 07:12:46;;;;;;;16.50;10.80;;;;;;;4.36;78.01;100221.54;106120;1273;111183;-75
2022/02/11 07:15:18;;;;;;;21.30;10.30;;;;;;;4.38;77.95;100222.90;105985;1274;138595;-74
2022/02/11 07:17:50;;;;;;;15.70;9.80;;;;;;;4.42;78.05;100227.52;106112;1274;107903;-75
2022/02/11 07:20:22;;;;;;;15.30;10.70;;;;;;;4.44;78.21;100225.95;106103;1273;96475;-74
2022/02/11 07:22:54;;;;;;;21.50;13.40;;;;;;;4.47;78.02;100221.61;105963;1273;138356;-75
2022/02/11 07:25:26;;;;;;;18.40;11.30;;;;;;;4.51;78.11;100225.05;106082;1273;108426;-75
2022/02/11 07:27:58;;;;;;;21.60;11.40;;;;;;;4.58;78.32;100223.09;106016;1273;138732;-75
2022/02/11 07:30:34;;;;;;;28.00;12.80;;;;;;;4.64;77.85;100227.50;105795;1273;107830;-75
2022/02/11 07:33:07;;;;;;;31.70;13.40;;;;;;;4.65;77.88;100229.38;105996;1273;96481;-75
2022/02/11 07:35:38;;;;;;;27.20;14.30;;;;;;;4.67;77.70;100232.48;105877;1273;138114;-75
2022/02/11 07:38:11;;;;;;;25.10;13.90;;;;;;;4.66;77.83;100233.52;105958;1273;110244;-73
2022/02/11 07:40:43;;;;;;;21.70;13.30;;;;;;;4.65;77.62;100232.14;105964;1271;139199;-75
2022/02/11 07:43:15;;;;;;;21.40;13.10;;;;;;;4.59;77.37;100229.10;106010;1271;108258;-74
2022/02/11 07:46:07;;;;;;;19.50;11.70;;;;;;;4.59;77.65;100231.86;105774;1271;136441;-74
2022/02/11 07:48:39;;;;;;;21.90;11.90;;;;;;;4.57;77.57;100228.95;105913;1274;96495;-75
2022/02/11 07:51:12;;;;;;;18.00;11.00;;;;;;;4.54;77.62;100223.64;106001;1273;109515;-74
2022/02/11 07:53:46;;;;;;;16.10;11.40;;;;;;;4.53;77.68;100226.74;105904;1273;139180;-74
2022/02/11 07:56:18;;;;;;;21.40;12.60;;;;;;;4.52;77.44;100227.11;105885;1273;107880;-73
2022/02/11 07:58:51;;;;;;;26.50;16.50;;;;;;;4.52;77.55;100218.84;105911;1274;138400;-74
2022/02/11 08:01:23;;;;;;;20.70;11.80;;;;;;;4.56;77.97;100217.41;105916;1273;96490;-74
2022/02/11 08:03:56;;;;;;;19.90;12.70;;;;;;;4.64;77.92;100219.92;105829;1271;138563;-74
2022/02/11 08:06:28;;;;;;;23.90;13.60;;;;;;;4.65;77.56;100219.57;106024;1271;107901;-74
2022/02/11 08:09:00;;;;;;;21.90;13.80;;;;;;;4.68;77.96;100218.88;106064;1270;108930;-73
2022/02/11 08:11:32;;;;;;;22.40;13.70;;;;;;;4.70;77.93;100220.92;105921;1271;137424;-73
2022/02/11 08:14:04;;;;;;;24.50;14.50;;;;;;;4.69;77.93;100225.07;106005;1271;96491;-74
2022/02/11 08:16:35;;;;;;;19.70;12.90;;;;;;;4.68;77.77;100224.05;105933;1271;138353;-74
2022/02/11 08:19:09;;;;;;;24.10;14.20;;;;;;;4.65;78.01;100223.53;105983;1273;109031;-74
2022/02/11 08:21:41;;;;;;;20.70;13.30;;;;;;;4.65;78.16;100219.23;107448;1273;138379;-75
2022/02/11 08:24:13;;;;;;;15.60;12.60;;;;;;;4.66;78.27;100219.23;107626;1273;94672;-75
2022/02/11 08:26:45;;;;;;;17.60;11.80;;;;;;;4.69;78.49;100220.95;107651;1272;94828;-75
2022/02/11 08:29:21;;;;;;;17.80;12.30;;;;;;;4.72;78.29;100225.73;107577;1271;141122;-74
2022/02/11 08:31:55;;;;;;;16.80;12.60;;;;;;;4.74;78.49;100227.09;107767;1271;107829;-68
2022/02/11 08:34:27;;;;;;;18.80;12.80;;;;;;;4.79;78.37;100228.41;107573;1271;139718;-71
2022/02/11 08:36:59;;;;;;;22.50;13.60;;;;;;;4.84;78.52;100230.79;107597;1271;94772;-72
2022/02/11 08:39:34;;;;;;;20.60;14.50;;;;;;;4.92;78.51;100235.02;107554;1273;137938;-71
2022/02/11 08:42:07;;;;;;;22.80;14.70;;;;;;;4.97;78.58;100232.73;107602;1273;110728;-74
2022/02/11 08:44:39;;;;;;;20.40;14.40;;;;;;;5.02;78.50;100235.94;107715;1272;108116;-79
2022/02/11 08:47:11;;;;;;;21.20;15.80;;;;;;;5.04;78.34;100233.20;107577;1273;137617;-73
2022/02/11 08:49:43;;;;;;;23.90;16.10;;;;;;;5.06;78.20;100234.21;107588;1273;94854;-73
2022/02/11 08:52:15;;;;;;;21.50;14.80;;;;;;;5.06;78.12;100230.76;107540;1273;138071;-73
2022/02/11 08:54:48;;;;;;;26.50;14.50;;;;;;;5.05;77.86;100234.04;107613;1271;111018;-71
2022/02/11 08:57:20;;;;;;;23.30;14.30;;;;;;;5.06;77.97;100230.77;107634;1273;108874;-72
2022/02/11 08:59:52;;;;;;;21.60;14.90;;;;;;;5.09;78.08;100226.92;107484;1272;138586;-72
2022/02/11 09:02:24;;;;;;;24.80;15.20;;;;;;;5.18;78.39;100218.20;107723;1269;95275;-73
2022/02/11 09:05:02;;;;;;;20.10;14.80;;;;;;;5.30;78.32;100222.55;107558;1269;138641;-72
2022/02/11 09:07:34;;;;;;;23.00;15.10;;;;;;;5.36;78.32;100214.56;107754;1270;111101;-72
2022/02/11 09:10:08;;;;;;;19.30;13.70;;;;;;;5.47;78.12;100215.30;107628;1268;139615;-71
2022/02/11 09:12:40;;;;;;;20.40;14.00;;;;;;;5.56;77.96;100215.89;107693;1268;109448;-72
2022/02/11 09:15:12;;;;;;;21.20;13.70;;;;;;;5.62;77.58;100215.64;107709;1270;95210;-72
2022/02/11 09:17:44;;;;;;;21.70;13.80;;;;;;;5.66;77.45;100213.68;107623;1270;138765;-71
2022/02/11 09:20:16;;;;;;;20.80;14.30;;;;;;;5.71;77.33;100217.40;107728;1268;111733;-71
2022/02/11 09:22:50;;;;;;;22.90;13.90;;;;;;;5.72;77.04;100219.80;107486;1268;140312;-71
2022/02/11 09:25:23;;;;;;;19.90;14.10;;;;;;;5.75;77.30;100228.92;107748;1268;108846;-71
2022/02/11 09:27:55;;;;;;;20.40;13.60;;;;;;;5.75;76.80;100225.13;107610;1267;138816;-71
2022/02/11 09:30:27;;;;;;;25.00;15.30;;;;;;;5.73;76.67;100229.63;107679;1268;94881;-71
2022/02/11 09:33:00;;;;;;;21.90;14.80;;;;;;;5.76;76.75;100228.59;107722;1268;110119;-71
2022/02/11 09:35:32;;;;;;;37.20;21.50;;;;;;;5.78;77.02;100229.23;107556;1268;139012;-71
2022/02/11 09:38:04;;;;;;;22.90;14.50;;;;;;;5.83;76.86;100233.65;107692;1268;108703;-71
2022/02/11 09:40:44;;;;;;;19.00;13.30;;;;;;;5.83;76.21;100237.10;107577;1268;138286;-71
2022/02/11 09:43:17;;;;;;;21.70;14.20;;;;;;;5.82;76.51;100234.20;107784;1270;94855;-71
2022/02/11 09:45:50;;;;;;;22.80;14.50;;;;;;;5.83;76.48;100228.48;107632;1269;138616;-71
2022/02/11 09:48:23;;;;;;;25.70;13.70;;;;;;;5.87;76.65;100227.04;107766;1269;107073;-72
2022/02/11 09:50:55;;;;;;;19.90;13.40;;;;;;;5.92;76.36;100233.05;106306;1270;107793;-71
2022/02/11 09:53:31;;;;;;;22.60;14.90;;;;;;;5.93;76.22;100233.39;106029;1270;138020;-72
2022/02/11 09:56:04;;;;;;;22.40;14.80;;;;;;;5.92;76.13;100228.04;106242;1270;96583;-71
2022/02/11 09:58:56;;;;;;;22.50;15.00;;;;;;;5.89;75.92;100219.59;107640;1268;138307;-70
2022/02/11 10:01:28;;;;;;;26.50;16.10;;;;;;;5.81;75.71;100220.75;107696;1268;109654;-70
2022/02/11 10:04:16;;;;;;;22.40;15.30;;;;;;;5.67;75.45;100222.48;107704;1268;138305;-71
2022/02/11 10:06:51;;;;;;;21.00;14.70;;;;;;;5.60;75.86;100217.41;107721;1269;94723;-72
2022/02/11 10:09:23;;;;;;;21.70;14.60;;;;;;;5.61;76.16;100211.17;107787;1269;94706;-72
2022/02/11 10:11:57;;;;;;;20.70;13.40;;;;;;;5.61;76.39;100216.69;107633;1268;138429;-72
2022/02/11 10:14:33;;;;;;;21.50;13.20;;;;;;;5.62;75.98;100214.44;107731;1268;109513;-72
2022/02/11 10:17:08;;;;;;;19.60;11.90;;;;;;;5.57;75.78;100213.98;107594;1270;138696;-71
2022/02/11 10:19:45;;;;;;;23.00;12.10;;;;;;;5.52;75.63;100214.73;107732;1268;94802;-71
2022/02/11 10:22:17;;;;;;;;;;;;;;;5.52;75.63;100215.77;107684;1269;138160;-72
2022/02/11 10:24:50;;;;;;;26.70;13.10;;;;;;;5.57;76.03;100214.15;107601;1271;110706;-72
2022/02/11 10:27:29;;;;;;;21.80;13.20;;;;;;;5.68;76.51;100214.53;107807;1269;108347;-72
2022/02/11 10:30:03;;;;;;;22.10;13.70;;;;;;;5.69;76.08;100214.85;107640;1269;138854;-70
2022/02/11 10:32:44;;;;;;;19.60;12.90;;;;;;;5.66;76.18;100209.02;107761;1269;94882;-70
2022/02/11 10:35:19;;;;;;;18.90;12.20;;;;;;;5.68;75.71;100210.04;107687;1268;137273;-71
2022/02/11 10:38:10;;;;;;;23.00;11.90;;;;;;;5.64;75.42;100213.70;107818;1268;110943;-71
2022/02/11 10:40:45;;;;;;;15.70;10.60;;;;;;;5.60;75.84;100213.77;107708;1268;138230;-71
2022/02/11 10:43:26;;;;;;;12.80;8.90;;;;;;;5.63;75.80;100215.63;107714;1268;107520;-72
2022/02/11 10:46:01;;;;;;;18.60;9.60;;;;;;;5.70;75.76;100215.36;107640;1268;138135;-72
2022/02/11 10:48:35;;;;;;;18.90;9.10;;;;;;;5.78;75.84;100216.13;107706;1269;97915;-73
2022/02/11 10:51:08;;;;;;;20.40;12.10;;;;;;;5.85;75.77;100213.10;107732;1270;110961;-72
2022/02/11 10:53:43;;;;;;;19.60;10.90;;;;;;;5.88;75.97;100208.38;107616;1269;137696;-72
2022/02/11 10:56:16;;;;;;;21.00;10.50;;;;;;;5.88;75.35;100210.30;107810;1268;109174;-70
2022/02/11 10:58:58;;;;;;;18.40;11.30;;;;;;;5.82;75.06;100210.55;107618;1270;137953;-72
2022/02/11 11:01:32;;;;;;;14.70;8.40;;;;;;;5.78;75.20;100215.77;107742;1268;96799;-71
2022/02/11 11:04:04;;;;;;;10.00;6.80;;;;;;;5.74;74.78;100214.44;107694;1269;139868;-73
2022/02/11 11:06:36;;;;;;;11.50;6.40;;;;;;;5.62;74.38;100212.19;107656;1268;109026;-69
2022/02/11 11:09:09;;;;;;;10.10;6.20;;;;;;;5.52;74.54;100214.55;107681;1270;110215;-70
2022/02/11 11:11:43;;;;;;;11.60;7.90;;;;;;;5.47;74.82;100213.75;107709;1267;138669;-71
2022/02/11 11:14:16;;;;;;;13.30;8.30;;;;;;;5.43;75.10;100211.38;107889;1268;94824;-70
2022/02/11 11:16:51;;;;;;;13.70;7.00;;;;;;;5.38;75.14;100214.71;107726;1268;138620;-71
2022/02/11 11:19:25;;;;;;;11.90;7.30;;;;;;;5.34;74.78;100209.41;106682;1270;108865;-70
2022/02/11 11:22:15;;;;;;;14.10;6.30;;;;;;;5.28;74.62;100213.11;107685;1269;138686;-70
2022/02/11 11:24:51;;;;;;;9.90;6.40;;;;;;;5.22;74.29;100206.98;107805;1268;94818;-71
2022/02/11 11:27:41;;;;;;;13.50;7.00;;;;;;;5.21;74.45;100203.54;107866;1268;94866;-71
2022/02/11 11:30:29;;;;;;;11.30;6.80;;;;;;;5.20;74.52;100204.23;107662;1268;138077;-71
2022/02/11 11:33:26;;;;;;;11.40;6.40;;;;;;;5.18;74.63;100203.55;107820;1268;108773;-71
2022/02/11 11:36:06;;;;;;;13.70;6.70;;;;;;;5.15;74.27;100203.59;107638;1268;138033;-71
2022/02/11 11:38:49;;;;;;;10.30;4.80;;;;;;;5.15;74.64;100198.41;107767;1268;94796;-71
2022/02/11 11:41:24;;;;;;;8.60;5.40;;;;;;;5.16;74.22;100197.03;107722;1269;137851;-70
2022/02/11 11:43:57;;;;;;;18.90;5.20;;;;;;;5.13;74.35;100193.45;107762;1270;109903;-71
2022/02/11 11:46:35;;;;;;;7.60;5.00;;;;;;;5.15;74.03;100190.32;107515;1268;138855;-71
2022/02/11 11:49:14;;;;;;;14.10;5.80;;;;;;;5.11;73.61;100190.72;107757;1269;107089;-71
2022/02/11 11:52:08;;;;;;;11.00;6.50;;;;;;;5.03;73.66;100191.50;107759;1270;94971;-71
2022/02/11 11:54:40;;;;;;;11.70;6.20;;;;;;;5.01;73.71;100189.08;107840;1269;94964;-72
2022/02/11 11:57:17;;;;;;;9.80;5.50;;;;;;;5.03;73.75;100190.81;107855;1269;111188;-71
2022/02/11 11:59:50;;;;;;;12.70;4.80;;;;;;;5.02;73.64;100185.80;107729;1266;138022;-72
2022/02/11 12:02:29;;;;;;;12.70;4.70;;;;;;;5.02;73.63;100187.20;107889;1268;109624;-72
2022/02/11 12:05:03;;;;;;;9.50;4.70;;;;;;;4.95;73.43;100190.54;107705;1268;137450;-72
2022/02/11 12:07:37;;;;;;;6.90;4.10;;;;;;;4.89;73.57;100192.85;107823;1269;94754;-72
2022/02/11 12:10:11;;;;;;;9.90;5.90;;;;;;;4.89;73.71;100192.16;107836;1269;111293;-72
2022/02/11 12:12:42;;;;;;;10.80;5.80;;;;;;;4.84;73.49;100190.65;107753;1268;138154;-72
2022/02/11 12:15:17;;;;;;;10.30;5.30;;;;;;;4.78;73.69;100196.21;107823;1268;108961;-72
2022/02/11 12:17:53;;;;;;;9.50;6.00;;;;;;;4.71;74.00;100194.73;107663;1268;138191;-72
2022/02/11 12:20:28;;;;;;;8.60;5.60;;;;;;;4.64;73.98;100190.83;107863;1270;94995;-71
2022/02/11 12:28:49;;;;;;;14.00;6.00;;;;;;;4.55;74.59;100185.75;107523;1271;137619;-72
2022/02/11 12:31:29;;;;;;;10.10;7.00;;;;;;;4.50;74.82;100185.98;107691;1271;94872;-71
2022/02/11 12:34:17;;;;;;;5.40;4.10;;;;;;;4.51;75.06;100185.45;107670;1271;94790;-71
2022/02/11 12:36:49;;;;;;;6.30;4.00;;;;;;;4.48;74.75;100183.05;107514;1271;136736;-71
2022/02/11 12:39:22;;;;;;;6.20;4.80;;;;;;;4.45;74.92;100185.13;107551;1271;108848;-71
2022/02/11 12:41:56;;;;;;;8.80;4.30;;;;;;;4.45;75.12;100182.90;107464;1271;138293;-71
2022/02/11 12:44:31;;;;;;;10.40;4.80;;;;;;;4.47;75.01;100184.43;107713;1271;95436;-71
2022/02/11 12:47:04;;;;;;;7.70;4.50;;;;;;;4.49;75.05;100185.29;107544;1271;138401;-71
2022/02/11 12:49:45;;;;;;;11.60;5.60;;;;;;;4.49;75.09;100186.66;107606;1271;110381;-72
2022/02/11 12:52:22;;;;;;;8.70;4.80;;;;;;;4.47;75.19;100187.17;107686;1271;109048;-70
2022/02/11 12:55:02;;;;;;;7.10;4.90;;;;;;;4.46;75.09;100189.94;106331;1271;138648;-71
2022/02/11 12:57:35;;;;;;;10.00;5.10;;;;;;;4.44;75.42;100190.13;107674;1271;94836;-71
2022/02/11 13:00:09;;;;;;;8.10;5.50;;;;;;;4.42;75.29;100193.60;107618;1271;138118;-71
2022/02/11 13:02:43;;;;;;;10.50;5.30;;;;;;;4.35;75.55;100195.73;107683;1268;111153;-71
2022/02/11 13:05:20;;;;;;;8.00;6.00;;;;;;;4.33;75.69;100197.13;107761;1268;138622;-73
2022/02/11 13:07:54;;;;;;;11.40;5.60;;;;;;;4.32;75.96;100198.34;107830;1269;107990;-70
2022/02/11 13:10:27;;;;;;;9.50;5.90;;;;;;;4.24;75.84;100202.68;107845;1269;94527;-70
2022/02/11 13:13:00;;;;;;;9.30;5.50;;;;;;;4.20;75.94;100200.31;107753;1269;138402;-70
2022/02/11 13:15:35;;;;;;;14.30;6.10;;;;;;;4.16;75.96;100206.02;107752;1269;111144;-70
2022/02/11 13:18:13;;;;;;;10.30;6.30;;;;;;;4.13;76.14;100205.52;107523;1270;138607;-69
2022/02/11 13:20:50;;;;;;;10.60;6.30;;;;;;;4.13;76.06;100203.45;106311;1270;108871;-70
2022/02/11 13:23:24;;;;;;;9.30;5.50;;;;;;;4.08;76.04;100200.55;106131;1270;138053;-70
2022/02/11 13:25:58;;;;;;;9.90;6.70;;;;;;;4.02;75.90;100201.45;106315;1270;96445;-69
2022/02/11 13:28:42;;;;;;;13.30;6.60;;;;;;;3.99;76.24;100204.77;106317;1270;111126;-70
2022/02/11 13:31:15;;;;;;;12.90;6.90;;;;;;;3.99;76.41;100204.94;106149;1269;138499;-69
2022/02/11 13:33:49;;;;;;;14.80;6.70;;;;;;;3.96;76.26;100204.09;106209;1270;109004;-69
2022/02/11 13:36:27;;;;;;;11.60;6.70;;;;;;;3.94;76.50;100205.98;106104;1268;139156;-70
2022/02/11 13:39:01;;;;;;;11.60;6.30;;;;;;;3.93;76.57;100216.81;106187;1268;96473;-70
2022/02/11 13:41:38;;;;;;;13.00;7.60;;;;;;;3.88;76.74;100224.41;106186;1268;140200;-68
2022/02/11 13:44:14;;;;;;;13.30;8.10;;;;;;;3.84;76.72;100230.46;106182;1270;109212;-70
2022/02/11 13:46:59;;;;;;;15.20;8.70;;;;;;;3.76;76.84;100237.21;107642;1270;138641;-69
2022/02/11 13:49:39;;;;;;;12.80;8.20;;;;;;;3.70;76.90;100238.95;107789;1270;94489;-70
2022/02/11 13:55:03;;;;;;;14.60;8.10;;;;;;;3.54;77.32;100250.70;107678;1270;138436;-70
2022/02/11 13:57:37;;;;;;;11.50;6.60;;;;;;;3.49;77.46;100253.48;107781;1269;108566;-70
2022/02/11 14:00:33;;;;;;;9.30;5.80;;;;;;;3.47;77.62;100257.09;107659;1268;138246;-70
2022/02/11 14:03:05;;;;;;;9.00;5.80;;;;;;;3.45;77.45;100263.13;107779;1268;94976;-70
2022/02/11 14:05:49;;;;;;;8.50;5.30;;;;;;;3.41;77.54;100267.42;107721;1268;137701;-71
2022/02/11 14:08:21;;;;;;;8.00;4.90;;;;;;;3.31;77.66;100277.25;107821;1270;111427;-70
2022/02/11 14:11:13;;;;;;;7.90;4.80;;;;;;;3.26;77.64;100274.86;107706;1270;138466;-69
2022/02/11 14:13:45;;;;;;;8.20;4.80;;;;;;;3.20;77.58;100275.89;107648;1270;108831;-70
2022/02/11 14:16:18;;;;;;;6.60;4.90;;;;;;;3.11;77.55;100283.98;106278;1268;96474;-69
2022/02/11 14:18:50;;;;;;;7.40;4.70;;;;;;;3.03;77.38;100284.50;106157;1270;137664;-69
2022/02/11 14:21:22;;;;;;;12.10;4.50;;;;;;;2.97;77.48;100288.63;106297;1269;109557;-69
2022/02/11 14:23:55;;;;;;;7.90;4.60;;;;;;;2.92;77.66;100289.84;106228;1270;138116;-69
2022/02/11 14:26:31;;;;;;;7.90;4.60;;;;;;;2.89;77.66;100290.02;106329;1270;108661;-69
2022/02/11 14:29:03;;;;;;;7.90;5.40;;;;;;;2.82;77.76;100299.45;106199;1270;139646;-69
2022/02/11 14:31:36;;;;;;;8.90;4.80;;;;;;;2.79;77.90;100305.81;106384;1269;96361;-69
2022/02/11 14:34:08;;;;;;;7.80;5.20;;;;;;;2.78;78.12;100312.50;106138;1270;273029;-70
2022/02/11 14:36:42;;;;;;;9.40;5.20;;;;;;;2.75;78.21;100310.45;106878;1270;137868;-70
2022/02/11 14:39:17;;;;;;;10.50;5.10;;;;;;;2.74;78.33;100315.77;107772;1269;107521;-70
2022/02/11 14:41:51;;;;;;;10.20;6.10;;;;;;;2.74;78.35;100320.23;107690;1270;138248;-70
2022/02/11 14:44:28;;;;;;;9.30;6.20;;;;;;;2.75;78.29;100330.20;107426;1270;95165;-69
2022/02/11 14:47:01;;;;;;;8.60;5.50;;;;;;;2.72;78.30;100335.17;107501;1269;138119;-68
2022/02/11 14:49:33;;;;;;;8.30;5.60;;;;;;;2.73;78.43;100320.06;107772;1270;109030;-72
2022/02/11 14:52:12;;;;;;;10.40;6.10;;;;;;;2.73;78.38;100322.64;107794;1268;108481;-73
2022/02/11 14:54:43;;;;;;;;;;;;;;;2.73;78.15;100327.97;107650;1270;137493;-69
2022/02/11 14:57:15;;;;;;;8.40;6.20;;;;;;;2.64;77.94;100326.91;107810;1270;95510;-70
2022/02/11 14:59:47;;;;;;;14.60;6.90;;;;;;;2.52;77.97;100333.58;107683;1269;136973;-70
2022/02/11 15:02:19;;;;;;;17.30;8.00;;;;;;;2.45;78.21;100329.98;107818;1270;109040;-70